createdAt,value
2019-01-18T00:00:38.653Z,94.56
2019-01-18T00:01:38.640Z,94.65
2019-01-18T00:02:38.622Z,94.37
2019-01-18T00:03:38.605Z,94.74
2019-01-18T00:04:38.592Z,94.56
2019-01-18T00:05:38.573Z,94.56
2019-01-18T00:06:38.562Z,94.74
2019-01-18T00:07:38.544Z,94.7
2019-01-18T00:08:38.533Z,94.74
2019-01-18T00:09:38.518Z,94.74
2019-01-18T00:10:38.498Z,94.37
2019-01-18T00:11:38.485Z,94.46
2019-01-18T00:12:38.468Z,94.56
2019-01-18T00:13:38.453Z,94.56
2019-01-18T00:14:38.438Z,94.56
2019-01-18T00:15:38.423Z,94.37
2019-01-18T00:16:38.409Z,94.56
2019-01-18T00:17:38.392Z,94.56
2019-01-18T00:18:38.378Z,94.84
2019-01-18T00:19:38.364Z,94.37
2019-01-18T00:20:38.347Z,94.37
2019-01-18T00:21:38.334Z,94.56
2019-01-18T00:22:38.328Z,94.74
2019-01-18T00:23:38.302Z,94.56
2019-01-18T00:24:38.545Z,94.74
2019-01-18T00:25:38.273Z,94.84
2019-01-18T00:26:38.259Z,94.56
2019-01-18T00:27:38.242Z,94.93
2019-01-18T00:28:38.228Z,94.27
2019-01-18T00:29:38.212Z,94.37
2019-01-18T00:30:38.201Z,94.56
2019-01-18T00:31:38.184Z,94.65
2019-01-18T00:32:38.173Z,94.56
2019-01-18T00:33:38.151Z,94.56
2019-01-18T00:34:38.137Z,94.65
2019-01-18T00:35:38.122Z,94.65
2019-01-18T00:36:38.110Z,94.65
2019-01-18T00:37:38.091Z,94.74
2019-01-18T00:38:38.078Z,95.03
2019-01-18T00:39:38.062Z,95.31
2019-01-18T00:40:37.808Z,94.93
2019-01-18T00:41:38.032Z,94.84
2019-01-18T00:42:38.018Z,94.84
2019-01-18T00:43:38.003Z,94.84
2019-01-18T00:44:37.986Z,95.03
2019-01-18T00:45:37.973Z,94.74
2019-01-18T00:46:37.958Z,94.46
2019-01-18T00:47:37.940Z,94.93
2019-01-18T00:48:37.933Z,94.93
2019-01-18T00:49:37.912Z,94.08
2019-01-18T00:50:37.899Z,94.27
2019-01-18T00:51:37.881Z,94.46
2019-01-18T00:52:37.872Z,94.93
2019-01-18T00:53:37.851Z,94.56
2019-01-18T00:54:37.834Z,94.27
2019-01-18T00:55:37.819Z,94.65
2019-01-18T00:56:37.806Z,94.46
2019-01-18T00:57:37.791Z,94.74
2019-01-18T00:58:37.776Z,94.84
2019-01-18T00:59:38.817Z,95.22
2019-01-18T01:00:37.745Z,94.56
2019-01-18T01:01:37.731Z,94.46
2019-01-18T01:02:37.714Z,94.74
2019-01-18T01:03:37.698Z,95.31
2019-01-18T01:04:37.685Z,94.65
2019-01-18T01:05:37.670Z,94.84
2019-01-18T01:06:37.656Z,94.56
2019-01-18T01:07:37.639Z,95.03
2019-01-18T01:08:37.623Z,94.56
2019-01-18T01:09:37.608Z,95.31
2019-01-18T01:10:37.596Z,94.46
2019-01-18T01:11:37.578Z,94.93
2019-01-18T01:12:37.564Z,94.84
2019-01-18T01:13:37.548Z,95.41
2019-01-18T01:14:37.533Z,95.6
2019-01-18T01:15:37.518Z,94.84
2019-01-18T01:16:37.503Z,94.84
2019-01-18T01:17:37.485Z,95.22
2019-01-18T01:18:37.473Z,95.31
2019-01-18T01:19:37.456Z,96.17
2019-01-18T01:20:37.441Z,95.6
2019-01-18T01:21:37.426Z,95.03
2019-01-18T01:22:37.415Z,95.12
2019-01-18T01:23:37.394Z,94.74
2019-01-18T01:24:37.379Z,95.22
2019-01-18T01:25:37.377Z,95.22
2019-01-18T01:26:37.355Z,95.31
2019-01-18T01:27:37.333Z,95.22
2019-01-18T01:28:37.319Z,95.31
2019-01-18T01:29:42.909Z,95.41
2019-01-18T01:30:37.290Z,96.07
2019-01-18T01:31:37.275Z,94.84
2019-01-18T01:32:37.259Z,95.12
2019-01-18T01:33:37.242Z,95.41
2019-01-18T01:34:37.227Z,95.22
2019-01-18T01:35:37.212Z,94.84
2019-01-18T01:36:37.219Z,95.22
2019-01-18T01:37:37.186Z,95.31
2019-01-18T01:38:37.168Z,94.93
2019-01-18T01:39:37.149Z,95.41
2019-01-18T01:40:37.139Z,95.6
2019-01-18T01:41:37.120Z,95.88
2019-01-18T01:42:37.103Z,95.79
2019-01-18T01:43:37.091Z,95.31
2019-01-18T01:44:37.073Z,94.93
2019-01-18T01:45:37.058Z,95.22
2019-01-18T01:46:37.042Z,95.6
2019-01-18T01:47:37.028Z,95.41
2019-01-18T01:48:37.016Z,95.5
2019-01-18T01:49:36.997Z,94.74
2019-01-18T01:50:36.988Z,95.6
2019-01-18T01:51:36.966Z,95.98
2019-01-18T01:52:36.952Z,95.88
2019-01-18T01:53:36.937Z,95.6
2019-01-18T01:54:36.925Z,95.5
2019-01-18T01:55:36.964Z,95.41
2019-01-18T01:56:36.889Z,95.41
2019-01-18T01:57:36.874Z,95.69
2019-01-18T01:58:36.862Z,95.5
2019-01-18T01:59:36.843Z,95.69
2019-01-18T02:00:36.828Z,95.31
2019-01-18T02:01:36.813Z,95.6
2019-01-18T02:02:36.841Z,95.31
2019-01-18T02:03:36.783Z,95.79
2019-01-18T02:04:36.769Z,96.07
2019-01-18T02:05:36.750Z,95.45
2019-01-18T02:06:36.738Z,95.5
2019-01-18T02:07:36.718Z,95.83
2019-01-18T02:08:36.704Z,97.35
2019-01-18T02:09:36.689Z,97.35
2019-01-18T02:10:36.673Z,98.58
2019-01-18T02:11:36.666Z,98.3
2019-01-18T02:12:36.640Z,98.68
2019-01-18T02:13:36.628Z,98.01
2019-01-18T02:14:36.617Z,98.25
2019-01-18T02:15:36.602Z,97.87
2019-01-18T02:16:36.580Z,98.72
2019-01-18T02:17:36.563Z,97.68
2019-01-18T02:18:36.547Z,97.77
2019-01-18T02:19:36.535Z,97.87
2019-01-18T02:20:36.516Z,97.58
2019-01-18T02:21:36.505Z,98.06
2019-01-18T02:22:36.482Z,96.83
2019-01-18T02:23:36.466Z,96.97
2019-01-18T02:24:36.462Z,97.25
2019-01-18T02:25:36.438Z,97.91
2019-01-18T02:26:36.447Z,97.16
2019-01-18T02:27:36.404Z,97.25
2019-01-18T02:28:36.387Z,97.44
2019-01-18T02:29:36.371Z,96.97
2019-01-18T02:30:36.358Z,96.88
2019-01-18T02:31:36.337Z,97.53
2019-01-18T02:32:36.326Z,97.06
2019-01-18T02:33:36.308Z,96.59
2019-01-18T02:34:36.290Z,97.06
2019-01-18T02:35:36.289Z,96.31
2019-01-18T02:36:36.256Z,96.31
2019-01-18T02:37:36.240Z,96.5
2019-01-18T02:38:36.225Z,96.31
2019-01-18T02:39:36.209Z,96.97
2019-01-18T02:40:36.190Z,96.4
2019-01-18T02:41:36.178Z,96.31
2019-01-18T02:42:36.159Z,96.31
2019-01-18T02:43:36.141Z,96.4
2019-01-18T02:44:36.124Z,96.31
2019-01-18T02:45:36.125Z,96.31
2019-01-18T02:46:36.094Z,95.83
2019-01-18T02:47:36.076Z,96.59
2019-01-18T02:48:36.058Z,95.74
2019-01-18T02:49:36.042Z,95.64
2019-01-18T02:50:36.026Z,96.21
2019-01-18T02:51:36.007Z,96.21
2019-01-18T02:52:35.992Z,96.59
2019-01-18T02:53:36.004Z,95.93
2019-01-18T02:54:35.957Z,96.4
2019-01-18T02:55:35.947Z,96.02
2019-01-18T02:56:35.991Z,96.12
2019-01-18T02:57:35.907Z,96.59
2019-01-18T02:58:35.891Z,96.12
2019-01-18T02:59:35.879Z,97.63
2019-01-18T03:00:36.115Z,96.5
2019-01-18T03:01:35.843Z,97.44
2019-01-18T03:02:35.836Z,97.25
2019-01-18T03:03:35.809Z,97.06
2019-01-18T03:04:35.793Z,96.69
2019-01-18T03:05:35.774Z,97.25
2019-01-18T03:06:35.757Z,97.06
2019-01-18T03:07:35.740Z,96.21
2019-01-18T03:08:35.728Z,96.21
2019-01-18T03:09:35.709Z,96.31
2019-01-18T03:10:35.695Z,95.83
2019-01-18T03:11:35.675Z,96.21
2019-01-18T03:12:35.660Z,95.83
2019-01-18T03:13:35.652Z,95.74
2019-01-18T03:14:35.626Z,95.83
2019-01-18T03:15:35.605Z,96.4
2019-01-18T03:16:35.590Z,95.83
2019-01-18T03:17:35.574Z,95.26
2019-01-18T03:18:35.557Z,95.64
2019-01-18T03:19:35.545Z,95.55
2019-01-18T03:20:35.522Z,95.83
2019-01-18T03:21:35.508Z,95.64
2019-01-18T03:22:35.490Z,96.12
2019-01-18T03:23:35.472Z,96.02
2019-01-18T03:24:35.456Z,96.59
2019-01-18T03:25:35.439Z,97.06
2019-01-18T03:26:35.422Z,96.69
2019-01-18T03:27:35.405Z,96.5
2019-01-18T03:28:35.392Z,96.31
2019-01-18T03:29:35.380Z,95.64
2019-01-18T03:30:35.361Z,96.21
2019-01-18T03:31:35.612Z,95.64
2019-01-18T03:32:35.332Z,96.21
2019-01-18T03:33:35.309Z,96.21
2019-01-18T03:34:35.289Z,96.02
2019-01-18T03:35:35.297Z,96.5
2019-01-18T03:36:35.253Z,96.21
2019-01-18T03:37:35.240Z,96.78
2019-01-18T03:38:35.222Z,96.31
2019-01-18T03:39:35.206Z,96.69
2019-01-18T03:40:35.187Z,97.25
2019-01-18T03:41:35.171Z,97.06
2019-01-18T03:42:35.155Z,97.53
2019-01-18T03:43:35.136Z,97.01
2019-01-18T03:44:35.119Z,97.01
2019-01-18T03:45:35.103Z,96.92
2019-01-18T03:46:35.084Z,97.01
2019-01-18T03:47:35.069Z,97.11
2019-01-18T03:48:35.054Z,96.92
2019-01-18T03:49:35.054Z,96.64
2019-01-18T03:50:35.018Z,96.45
2019-01-18T03:51:35.001Z,96.83
2019-01-18T03:52:34.984Z,96.64
2019-01-18T03:53:34.966Z,97.01
2019-01-18T03:54:34.962Z,97.11
2019-01-18T03:55:34.935Z,97.01
2019-01-18T03:56:34.916Z,97.01
2019-01-18T03:57:34.899Z,97.01
2019-01-18T03:58:34.882Z,97.01
2019-01-18T03:59:34.624Z,96.92
2019-01-18T04:00:34.852Z,96.83
2019-01-18T04:01:34.835Z,96.83
2019-01-18T04:02:34.813Z,96.83
2019-01-18T04:03:34.799Z,96.54
2019-01-18T04:04:34.779Z,96.64
2019-01-18T04:05:34.762Z,96.16
2019-01-18T04:06:34.745Z,96.16
2019-01-18T04:07:34.726Z,96.16
2019-01-18T04:08:34.709Z,96.16
2019-01-18T04:09:34.691Z,96.45
2019-01-18T04:10:34.675Z,96.35
2019-01-18T04:11:34.656Z,96.26
2019-01-18T04:12:34.644Z,96.16
2019-01-18T04:13:34.633Z,96.16
2019-01-18T04:14:34.608Z,96.16
2019-01-18T04:15:34.591Z,96.16
2019-01-18T04:16:34.573Z,96.26
2019-01-18T04:17:34.557Z,96.45
2019-01-18T04:18:34.536Z,96.31
2019-01-18T04:19:34.520Z,96.31
2019-01-18T04:20:34.504Z,96.31
2019-01-18T04:21:34.487Z,96.16
2019-01-18T04:22:34.468Z,95.74
2019-01-18T04:23:34.451Z,96.45
2019-01-18T04:24:34.434Z,96.4
2019-01-18T04:25:34.423Z,95.74
2019-01-18T04:26:34.399Z,96.21
2019-01-18T04:27:34.385Z,95.64
2019-01-18T04:28:34.366Z,95.55
2019-01-18T04:29:34.353Z,95.93
2019-01-18T04:30:36.026Z,95.26
2019-01-18T04:31:34.314Z,94.6
2019-01-18T04:32:34.304Z,94.89
2019-01-18T04:33:34.280Z,94.98
2019-01-18T04:34:34.265Z,95.07
2019-01-18T04:35:34.249Z,94.7
2019-01-18T04:36:34.240Z,94.7
2019-01-18T04:37:34.211Z,95.07
2019-01-18T04:38:34.195Z,94.7
2019-01-18T04:39:34.180Z,95.17
2019-01-18T04:40:34.174Z,94.6
2019-01-18T04:41:34.144Z,94.7
2019-01-18T04:42:34.127Z,94.7
2019-01-18T04:43:34.114Z,95.26
2019-01-18T04:44:34.095Z,95.36
2019-01-18T04:45:34.078Z,94.79
2019-01-18T04:46:34.060Z,94.6
2019-01-18T04:47:34.047Z,95.17
2019-01-18T04:48:34.027Z,95.45
2019-01-18T04:49:34.013Z,94.98
2019-01-18T04:50:33.992Z,95.36
2019-01-18T04:51:33.976Z,94.89
2019-01-18T04:52:33.958Z,95.45
2019-01-18T04:53:33.945Z,95.36
2019-01-18T04:54:33.926Z,95.45
2019-01-18T04:55:33.907Z,95.07
2019-01-18T04:56:33.892Z,95.45
2019-01-18T04:57:33.877Z,94.6
2019-01-18T04:58:33.862Z,94.79
2019-01-18T04:59:33.840Z,95.03
2019-01-18T05:00:40.115Z,94.89
2019-01-18T05:01:33.805Z,95.36
2019-01-18T05:02:33.796Z,95.45
2019-01-18T05:03:33.774Z,95.5
2019-01-18T05:04:34.475Z,95.5
2019-01-18T05:05:33.744Z,95.88
2019-01-18T05:06:33.751Z,95.78
2019-01-18T05:07:33.708Z,95.59
2019-01-18T05:08:33.689Z,95.21
2019-01-18T05:09:33.684Z,95.97
2019-01-18T05:10:33.658Z,96.35
2019-01-18T05:11:33.643Z,96.35
2019-01-18T05:12:33.629Z,96.35
2019-01-18T05:13:33.610Z,96.92
2019-01-18T05:14:33.591Z,97.3
2019-01-18T05:15:33.580Z,97.06
2019-01-18T05:16:33.559Z,97.02
2019-01-18T05:17:33.549Z,96.69
2019-01-18T05:18:33.530Z,99.48
2019-01-18T05:19:33.513Z,98.86
2019-01-18T05:20:33.537Z,97.82
2019-01-18T05:21:33.478Z,98.1
2019-01-18T05:22:33.461Z,97.25
2019-01-18T05:23:33.444Z,98.01
2019-01-18T05:24:33.189Z,98.29
2019-01-18T05:25:33.413Z,98.48
2019-01-18T05:26:33.403Z,99.43
2019-01-18T05:27:33.382Z,98.77
2019-01-18T05:28:33.371Z,99.15
2019-01-18T05:29:33.346Z,99.9
2019-01-18T05:30:33.373Z,98.86
2019-01-18T05:31:33.324Z,99.99
2019-01-18T05:32:33.296Z,99.99
2019-01-18T05:33:33.039Z,99.99
2019-01-18T05:34:33.279Z,99.99
2019-01-18T05:35:33.246Z,99.99
2019-01-18T05:36:33.229Z,99.99
2019-01-18T05:37:33.216Z,99.99
2019-01-18T05:38:33.200Z,99.99
2019-01-18T05:39:33.179Z,99.99
2019-01-18T05:40:33.162Z,99.95
2019-01-18T05:41:33.146Z,99.99
2019-01-18T05:42:33.128Z,99.99
2019-01-18T05:43:33.111Z,99.99
2019-01-18T05:44:33.096Z,99.99
2019-01-18T05:45:33.077Z,99.99
2019-01-18T05:46:33.062Z,99.99
2019-01-18T05:47:33.043Z,99.38
2019-01-18T05:48:33.052Z,99.66
2019-01-18T05:49:33.012Z,99.99
2019-01-18T05:50:32.994Z,99.28
2019-01-18T05:51:32.981Z,99.43
2019-01-18T05:52:32.969Z,99.62
2019-01-18T05:53:32.954Z,99.62
2019-01-18T05:54:32.928Z,99.15
2019-01-18T05:55:32.916Z,99.9
2019-01-18T05:56:32.893Z,99.52
2019-01-18T05:57:32.875Z,99.24
2019-01-18T05:58:33.637Z,99.05
2019-01-18T05:59:32.842Z,99.99
2019-01-18T06:00:32.826Z,99.8
2019-01-18T06:01:32.975Z,99.99
2019-01-18T06:02:32.790Z,99.99
2019-01-18T06:03:32.772Z,99.99
2019-01-18T06:04:32.757Z,99.99
2019-01-18T06:05:32.739Z,99.99
2019-01-18T06:06:32.722Z,99.99
2019-01-18T06:07:32.708Z,99.99
2019-01-18T06:08:32.688Z,99.99
2019-01-18T06:09:32.675Z,99.99
2019-01-18T06:10:32.656Z,99.99
2019-01-18T06:11:32.646Z,99.99
2019-01-18T06:12:32.621Z,99.99
2019-01-18T06:13:32.605Z,99.99
2019-01-18T06:14:32.600Z,99.99
2019-01-18T06:15:32.571Z,99.99
2019-01-18T06:16:32.555Z,99.99
2019-01-18T06:17:32.537Z,99.99
2019-01-18T06:18:32.545Z,99.99
2019-01-18T06:19:32.501Z,99.99
2019-01-18T06:20:32.504Z,99.99
2019-01-18T06:21:32.471Z,99.99
2019-01-18T06:22:32.453Z,99.99
2019-01-18T06:23:32.434Z,99.99
2019-01-18T06:24:32.417Z,99.99
2019-01-18T06:25:32.400Z,99.99
2019-01-18T06:26:32.399Z,99.99
2019-01-18T06:27:32.377Z,99.99
2019-01-18T06:28:32.351Z,99.99
2019-01-18T06:29:32.338Z,99.99
2019-01-18T06:30:32.327Z,99.99
2019-01-18T06:31:32.298Z,99.99
2019-01-18T06:32:32.281Z,99.99
2019-01-18T06:33:32.434Z,99.99
2019-01-18T06:34:32.250Z,99.99
2019-01-18T06:35:32.242Z,99.99
2019-01-18T06:36:32.218Z,99.99
2019-01-18T06:37:32.196Z,99.99
2019-01-18T06:38:32.429Z,99.99
2019-01-18T06:39:32.168Z,99.99
2019-01-18T06:40:32.150Z,99.99
2019-01-18T06:41:32.132Z,99.99
2019-01-18T06:42:32.114Z,99.99
2019-01-18T06:43:32.097Z,99.99
2019-01-18T06:44:32.081Z,99.99
2019-01-18T06:45:32.066Z,99.99
2019-01-18T06:46:32.047Z,99.99
2019-01-18T06:47:32.030Z,99.99
2019-01-18T06:48:32.013Z,99.99
2019-01-18T06:49:31.998Z,99.99
2019-01-18T06:50:31.978Z,99.99
2019-01-18T06:51:31.962Z,99.99
2019-01-18T06:52:31.944Z,99.99
2019-01-18T06:53:31.929Z,99.99
2019-01-18T06:54:31.915Z,99.99
2019-01-18T06:55:31.898Z,99.99
2019-01-18T06:56:32.555Z,99.99
2019-01-18T06:57:31.869Z,99.99
2019-01-18T06:58:31.846Z,99.99
2019-01-18T06:59:31.828Z,99.99
2019-01-18T07:00:31.814Z,99.99
2019-01-18T07:01:31.792Z,99.99
2019-01-18T07:02:31.781Z,99.99
2019-01-18T07:03:31.760Z,99.99
2019-01-18T07:04:31.744Z,99.99
2019-01-18T07:05:31.729Z,99.99
2019-01-18T07:06:31.709Z,99.99
2019-01-18T07:07:31.692Z,99.99
2019-01-18T07:08:31.676Z,99.99
2019-01-18T07:09:31.910Z,99.99
2019-01-18T07:10:31.642Z,99.99
2019-01-18T07:11:31.626Z,99.99
2019-01-18T07:12:31.618Z,99.99
2019-01-18T07:13:31.593Z,99.99
2019-01-18T07:14:31.574Z,99.99
2019-01-18T07:15:31.560Z,99.99
2019-01-18T07:16:31.544Z,99.99
2019-01-18T07:17:31.525Z,99.99
2019-01-18T07:18:31.507Z,99.99
2019-01-18T07:19:31.493Z,99.99
2019-01-18T07:20:31.479Z,99.99
2019-01-18T07:21:31.456Z,99.99
2019-01-18T07:22:31.445Z,99.99
2019-01-18T07:23:31.997Z,99.99
2019-01-18T07:24:31.404Z,99.99
2019-01-18T07:25:31.394Z,99.99
2019-01-18T07:26:31.369Z,99.99
2019-01-18T07:27:31.363Z,99.99
2019-01-18T07:28:31.338Z,99.99
2019-01-18T07:29:31.319Z,99.99
2019-01-18T07:30:31.300Z,99.99
2019-01-18T07:31:31.285Z,99.99
2019-01-18T07:32:31.266Z,99.99
2019-01-18T07:33:31.251Z,99.99
2019-01-18T07:34:31.232Z,99.99
2019-01-18T07:35:31.218Z,99.99
2019-01-18T07:36:31.198Z,99.99
2019-01-18T07:37:31.184Z,99.99
2019-01-18T07:38:31.166Z,99.99
2019-01-18T07:39:31.156Z,99.99
2019-01-18T07:40:31.379Z,99.99
2019-01-18T07:41:31.112Z,99.99
2019-01-18T07:42:31.100Z,99.99
2019-01-18T07:43:31.078Z,99.99
2019-01-18T07:44:31.059Z,99.99
2019-01-18T07:45:31.047Z,99.99
2019-01-18T07:46:31.029Z,99.99
2019-01-18T07:47:31.009Z,99.99
2019-01-18T07:48:30.989Z,99.99
2019-01-18T07:49:30.975Z,99.99
2019-01-18T07:50:30.955Z,99.99
2019-01-18T07:51:30.939Z,99.99
2019-01-18T07:52:30.921Z,99.99
2019-01-18T07:53:30.904Z,99.99
2019-01-18T07:54:30.887Z,99.99
2019-01-18T07:55:30.872Z,99.99
2019-01-18T07:56:30.854Z,99.99
2019-01-18T07:57:30.834Z,99.99
2019-01-18T07:58:30.820Z,99.99
2019-01-18T07:59:30.799Z,99.99
2019-01-18T08:00:30.789Z,99.99
2019-01-18T08:01:30.770Z,99.99
2019-01-18T08:02:30.749Z,99.99
2019-01-18T08:03:30.728Z,99.99
2019-01-18T08:04:30.719Z,99.99
2019-01-18T08:05:30.699Z,99.99
2019-01-18T08:06:30.678Z,99.99
2019-01-18T08:07:30.662Z,99.99
2019-01-18T08:08:30.648Z,99.99
2019-01-18T08:09:30.625Z,99.99
2019-01-18T08:10:30.609Z,99.99
2019-01-18T08:11:30.591Z,99.99
2019-01-18T08:12:30.572Z,99.99
2019-01-18T08:13:30.555Z,99.99
2019-01-18T08:14:30.535Z,99.99
2019-01-18T08:15:30.527Z,99.99
2019-01-18T08:16:30.502Z,99.99
2019-01-18T08:17:30.486Z,99.99
2019-01-18T08:18:30.471Z,99.99
2019-01-18T08:19:30.453Z,99.99
2019-01-18T08:20:30.431Z,99.99
2019-01-18T08:21:30.417Z,99.99
2019-01-18T08:22:30.399Z,99.99
2019-01-18T08:23:30.380Z,99.99
2019-01-18T08:24:30.362Z,99.99
2019-01-18T08:25:30.348Z,99.99
2019-01-18T08:26:30.327Z,99.99
2019-01-18T08:27:30.311Z,99.99
2019-01-18T08:28:30.298Z,99.99
2019-01-18T08:29:30.277Z,99.99
2019-01-18T08:30:30.262Z,99.99
2019-01-18T08:31:31.510Z,99.99
2019-01-18T08:32:30.226Z,99.99
2019-01-18T08:33:30.212Z,99.99
2019-01-18T08:34:30.190Z,99.99
2019-01-18T08:35:30.172Z,99.99
2019-01-18T08:36:30.156Z,99.99
2019-01-18T08:37:30.142Z,99.99
2019-01-18T08:38:30.119Z,99.99
2019-01-18T08:39:30.104Z,99.99
2019-01-18T08:40:30.086Z,99.99
2019-01-18T08:41:30.072Z,99.99
2019-01-18T08:42:30.052Z,99.99
2019-01-18T08:43:30.035Z,99.99
2019-01-18T08:44:30.019Z,99.99
2019-01-18T08:45:30.004Z,99.99
2019-01-18T08:46:29.986Z,99.99
2019-01-18T08:47:29.967Z,99.99
2019-01-18T08:48:29.954Z,99.99
2019-01-18T08:49:29.931Z,99.99
2019-01-18T08:50:29.917Z,99.99
2019-01-18T08:51:29.898Z,99.99
2019-01-18T08:52:29.882Z,99.99
2019-01-18T08:53:29.862Z,99.99
2019-01-18T08:54:29.849Z,99.99
2019-01-18T08:55:29.832Z,99.99
2019-01-18T08:56:29.812Z,99.99
2019-01-18T08:57:29.796Z,99.99
2019-01-18T08:58:29.804Z,99.99
2019-01-18T08:59:29.761Z,99.99
2019-01-18T09:00:29.746Z,99.99
2019-01-18T09:01:35.498Z,99.99
2019-01-18T09:02:29.708Z,99.99
2019-01-18T09:03:29.693Z,99.99
2019-01-18T09:04:29.675Z,99.99
2019-01-18T09:05:29.658Z,99.99
2019-01-18T09:06:29.643Z,99.99
2019-01-18T09:07:29.629Z,99.99
2019-01-18T09:08:29.610Z,99.99
2019-01-18T09:09:29.592Z,99.99
2019-01-18T09:10:29.572Z,99.99
2019-01-18T09:11:29.555Z,99.99
2019-01-18T09:12:29.540Z,99.99
2019-01-18T09:13:29.523Z,99.99
2019-01-18T09:14:29.505Z,99.99
2019-01-18T09:15:29.490Z,99.99
2019-01-18T09:16:29.471Z,99.99
2019-01-18T09:17:29.455Z,99.99
2019-01-18T09:18:29.440Z,99.99
2019-01-18T09:19:29.425Z,99.99
2019-01-18T09:20:29.404Z,99.99
2019-01-18T09:21:29.388Z,99.99
2019-01-18T09:22:29.368Z,99.99
2019-01-18T09:23:29.354Z,99.99
2019-01-18T09:24:29.337Z,99.99
2019-01-18T09:25:29.323Z,99.99
2019-01-18T09:26:29.305Z,99.99
2019-01-18T09:27:29.286Z,99.99
2019-01-18T09:28:29.271Z,99.99
2019-01-18T09:29:29.256Z,99.99
2019-01-18T09:30:28.992Z,99.99
2019-01-18T09:31:29.219Z,99.99
2019-01-18T09:32:29.204Z,99.99
2019-01-18T09:33:29.185Z,99.99
2019-01-18T09:34:29.170Z,99.99
2019-01-18T09:35:29.164Z,99.99
2019-01-18T09:36:29.137Z,99.99
2019-01-18T09:37:29.120Z,99.99
2019-01-18T09:38:29.102Z,99.99
2019-01-18T09:39:29.084Z,99.99
2019-01-18T09:40:29.068Z,99.99
2019-01-18T09:41:29.052Z,99.99
2019-01-18T09:42:29.036Z,99.99
2019-01-18T09:43:29.019Z,99.99
2019-01-18T09:44:29.001Z,99.99
2019-01-18T09:45:28.985Z,99.99
2019-01-18T09:46:28.978Z,99.99
2019-01-18T09:47:28.960Z,99.99
2019-01-18T09:48:28.935Z,99.99
2019-01-18T09:49:28.920Z,99.99
2019-01-18T09:50:28.904Z,99.99
2019-01-18T09:51:28.885Z,99.99
2019-01-18T09:52:28.871Z,99.99
2019-01-18T09:53:28.855Z,99.99
2019-01-18T09:54:28.834Z,99.99
2019-01-18T09:55:28.822Z,99.99
2019-01-18T09:56:28.805Z,99.99
2019-01-18T09:57:28.790Z,99.99
2019-01-18T09:58:28.774Z,99.99
2019-01-18T09:59:28.757Z,99.99
2019-01-18T10:00:28.739Z,99.99
2019-01-18T10:01:28.722Z,99.99
2019-01-18T10:02:28.703Z,99.99
2019-01-18T10:03:28.729Z,99.99
2019-01-18T10:04:28.672Z,99.99
2019-01-18T10:05:28.658Z,99.99
2019-01-18T10:06:28.638Z,99.99
2019-01-18T10:07:28.625Z,99.99
2019-01-18T10:08:28.610Z,99.99
2019-01-18T10:09:28.592Z,99.99
2019-01-18T10:10:28.577Z,99.99
2019-01-18T10:11:28.559Z,99.99
2019-01-18T10:12:28.543Z,99.99
2019-01-18T10:13:28.529Z,99.99
2019-01-18T10:14:28.511Z,99.99
2019-01-18T10:15:28.494Z,99.99
2019-01-18T10:16:28.480Z,99.99
2019-01-18T10:17:28.463Z,99.99
2019-01-18T10:18:28.473Z,99.99
2019-01-18T10:19:28.429Z,99.99
2019-01-18T10:20:28.416Z,99.99
2019-01-18T10:21:28.398Z,99.99
2019-01-18T10:22:28.384Z,99.99
2019-01-18T10:23:28.366Z,99.99
2019-01-18T10:24:28.352Z,99.99
2019-01-18T10:25:28.334Z,99.99
2019-01-18T10:26:28.323Z,99.99
2019-01-18T10:27:28.304Z,99.99
2019-01-18T10:28:28.286Z,99.99
2019-01-18T10:29:30.684Z,99.99
2019-01-18T10:30:28.257Z,99.99
2019-01-18T10:31:28.241Z,99.99
2019-01-18T10:32:28.222Z,99.99
2019-01-18T10:33:28.206Z,99.99
2019-01-18T10:34:28.193Z,99.99
2019-01-18T10:35:28.173Z,99.99
2019-01-18T10:36:28.162Z,99.99
2019-01-18T10:37:28.146Z,99.99
2019-01-18T10:38:28.128Z,99.99
2019-01-18T10:39:28.118Z,99.99
2019-01-18T10:40:28.096Z,99.99
2019-01-18T10:41:28.080Z,99.99
2019-01-18T10:42:28.065Z,99.99
2019-01-18T10:43:28.049Z,99.99
2019-01-18T10:44:28.032Z,99.99
2019-01-18T10:45:28.027Z,99.99
2019-01-18T10:46:28.006Z,99.99
2019-01-18T10:47:28.236Z,99.99
2019-01-18T10:48:27.973Z,99.99
2019-01-18T10:49:27.955Z,99.99
2019-01-18T10:50:27.937Z,99.99
2019-01-18T10:51:27.925Z,99.99
2019-01-18T10:52:27.908Z,99.99
2019-01-18T10:53:27.893Z,99.99
2019-01-18T10:54:27.877Z,99.99
2019-01-18T10:55:27.862Z,99.99
2019-01-18T10:56:27.844Z,99.99
2019-01-18T10:57:27.832Z,99.99
2019-01-18T10:58:27.815Z,99.99
2019-01-18T10:59:27.799Z,99.99
2019-01-18T11:00:27.784Z,99.99
2019-01-18T11:01:27.770Z,99.99
2019-01-18T11:02:27.751Z,99.99
2019-01-18T11:03:27.736Z,99.99
2019-01-18T11:04:27.735Z,99.99
2019-01-18T11:05:27.718Z,99.99
2019-01-18T11:06:27.698Z,99.99
2019-01-18T11:07:27.674Z,99.99
2019-01-18T11:08:27.838Z,99.99
2019-01-18T11:09:27.646Z,99.99
2019-01-18T11:10:27.627Z,99.99
2019-01-18T11:11:27.610Z,99.99
2019-01-18T11:12:27.594Z,99.99
2019-01-18T11:13:27.580Z,99.99
2019-01-18T11:14:27.570Z,99.99
2019-01-18T11:15:27.557Z,99.99
2019-01-18T11:16:27.537Z,99.99
2019-01-18T11:17:27.517Z,99.99
2019-01-18T11:18:27.752Z,99.99
2019-01-18T11:19:27.489Z,99.99
2019-01-18T11:20:27.476Z,99.99
2019-01-18T11:21:27.456Z,99.81
2019-01-18T11:22:27.443Z,99.71
2019-01-18T11:23:27.427Z,99.81
2019-01-18T11:24:27.408Z,98.68
2019-01-18T11:25:34.124Z,99.24
2019-01-18T11:26:27.377Z,99.99
2019-01-18T11:27:27.362Z,99.99
2019-01-18T11:28:27.346Z,99.99
2019-01-18T11:29:27.332Z,99.99
2019-01-18T11:30:27.316Z,99.99
2019-01-18T11:31:27.301Z,99.99
2019-01-18T11:32:27.285Z,99.99
2019-01-18T11:33:27.272Z,99.99
2019-01-18T11:34:27.257Z,99.99
2019-01-18T11:35:27.239Z,99.62
2019-01-18T11:36:27.225Z,99.99
2019-01-18T11:37:27.208Z,99.99
2019-01-18T11:38:27.194Z,99.99
2019-01-18T11:39:27.182Z,99.99
2019-01-18T11:40:27.163Z,99.99
2019-01-18T11:41:27.160Z,99.99
2019-01-18T11:42:27.130Z,99.99
2019-01-18T11:43:27.116Z,99.99
2019-01-18T11:44:27.106Z,99.99
2019-01-18T11:45:27.086Z,99.99
2019-01-18T11:46:27.071Z,99.99
2019-01-18T11:47:28.347Z,99.99
2019-01-18T11:48:27.040Z,99.99
2019-01-18T11:49:27.024Z,99.99
2019-01-18T11:50:27.014Z,99.99
2019-01-18T11:51:26.998Z,99.99
2019-01-18T11:52:26.977Z,99.99
2019-01-18T11:53:26.961Z,99.99
2019-01-18T11:54:26.947Z,99.99
2019-01-18T11:55:26.935Z,99.99
2019-01-18T11:56:26.919Z,99.99
2019-01-18T11:57:26.904Z,99.99
2019-01-18T11:58:26.889Z,99.99
2019-01-18T11:59:26.875Z,99.99
2019-01-18T12:00:26.856Z,99.67
2019-01-18T12:01:26.850Z,99.99
2019-01-18T12:02:26.828Z,99.99
2019-01-18T12:03:26.810Z,99.99
2019-01-18T12:04:26.795Z,99.99
2019-01-18T12:05:26.782Z,99.99
2019-01-18T12:06:26.764Z,99.99
2019-01-18T12:07:26.750Z,99.99
2019-01-18T12:08:26.735Z,99.99
2019-01-18T12:09:26.726Z,99.99
2019-01-18T12:10:26.708Z,99.99
2019-01-18T12:11:26.692Z,99.99
2019-01-18T12:12:27.858Z,99.99
2019-01-18T12:13:26.664Z,99.99
2019-01-18T12:14:26.644Z,99.99
2019-01-18T12:15:26.627Z,99.99
2019-01-18T12:16:26.613Z,99.99
2019-01-18T12:17:26.599Z,99.99
2019-01-18T12:18:26.582Z,99.99
2019-01-18T12:19:26.567Z,99.99
2019-01-18T12:20:26.552Z,99.99
2019-01-18T12:21:26.540Z,99.99
2019-01-18T12:22:26.521Z,99.99
2019-01-18T12:23:26.506Z,99.99
2019-01-18T12:24:26.490Z,99.99
2019-01-18T12:25:26.475Z,99.99
2019-01-18T12:26:26.462Z,99.99
2019-01-18T12:27:26.444Z,99.99
2019-01-18T12:28:26.429Z,99.99
2019-01-18T12:29:26.418Z,99.86
2019-01-18T12:30:26.399Z,99.1
2019-01-18T12:31:26.383Z,99.99
2019-01-18T12:32:31.203Z,99.99
2019-01-18T12:33:26.354Z,99.99
2019-01-18T12:34:26.342Z,99.99
2019-01-18T12:35:26.323Z,99.99
2019-01-18T12:36:26.308Z,99.99
2019-01-18T12:37:26.292Z,99.99
2019-01-18T12:38:26.324Z,99.99
2019-01-18T12:39:26.264Z,99.99
2019-01-18T12:40:26.250Z,99.99
2019-01-18T12:41:26.232Z,99.99
2019-01-18T12:42:26.215Z,99.99
2019-01-18T12:43:26.199Z,99.99
2019-01-18T12:44:26.188Z,99.99
2019-01-18T12:45:26.170Z,99.99
2019-01-18T12:46:26.156Z,99.99
2019-01-18T12:47:26.141Z,99.99
2019-01-18T12:48:26.124Z,99.99
2019-01-18T12:49:26.109Z,99.99
2019-01-18T12:50:26.093Z,99.99
2019-01-18T12:51:26.078Z,99.99
2019-01-18T12:52:26.103Z,99.99
2019-01-18T12:53:26.047Z,99.01